Time;durP1;ratioP1;P1;durP2;ratioP2;P2;SDS_P1;SDS_P2;PMS_P1;PMS_P2;Temp;Humidity;BMP_temperature;BMP_pressure;BME280_temperature;BME280_humidity;BME280_pressure;Samples;Min_cycle;Max_cycle;Signal;HPM_P1;HPM_P2
2023/09/15 00:00:46;;;;;;;13.82;10.75;;;;;;;15.34;81.27;101748.97;3594452;39;20450;-66
2023/09/15 00:03:13;;;;;;;14.30;11.75;;;;;;;15.26;81.24;101729.66;3592410;39;20133;-67
2023/09/15 00:05:39;;;;;;;14.45;11.15;;;;;;;15.34;81.18;101754.38;3594306;39;20051;-66
2023/09/15 00:08:06;;;;;;;12.10;10.90;;;;;;;15.32;80.84;101750.91;3592615;39;20051;-67
2023/09/15 00:10:40;;;;;;;13.50;10.90;;;;;;;15.29;81.37;101745.72;3596641;39;20064;-66
2023/09/15 00:13:05;;;;;;;13.30;11.80;;;;;;;15.27;81.48;101742.22;3596576;39;20043;-67
2023/09/15 00:15:32;;;;;;;12.77;11.50;;;;;;;15.06;81.70;101721.03;3594885;39;20401;-66
2023/09/15 00:17:58;;;;;;;14.07;12.40;;;;;;;15.21;82.01;101737.22;3586372;39;20039;-67
2023/09/15 00:20:25;;;;;;;14.00;11.50;;;;;;;15.19;82.17;101739.16;3593492;39;20059;-67
2023/09/15 00:22:53;;;;;;;13.65;11.50;;;;;;;15.15;82.01;101733.06;3594215;39;20058;-67
2023/09/15 00:25:22;;;;;;;15.43;12.75;;;;;;;15.15;82.35;101737.63;3595691;39;20618;-67
2023/09/15 00:27:56;;;;;;;13.18;11.73;;;;;;;15.13;81.95;101728.72;3596565;39;20141;-67
2023/09/15 00:30:24;;;;;;;14.20;11.95;;;;;;;15.08;82.31;101732.59;3596188;39;20055;-67
2023/09/15 00:32:51;;;;;;;14.57;12.27;;;;;;;15.06;82.56;101734.56;3593837;39;20328;-67
2023/09/15 00:35:23;;;;;;;14.18;12.07;;;;;;;15.02;82.09;101724.88;3592292;39;20064;-67
2023/09/15 00:37:51;;;;;;;14.05;12.55;;;;;;;15.00;82.48;101729.56;3595907;39;20416;-67
2023/09/15 00:40:20;;;;;;;13.98;12.38;;;;;;;14.97;82.47;101729.75;3594643;39;20697;-67
2023/09/15 00:42:48;;;;;;;16.23;12.60;;;;;;;14.96;82.52;101727.13;3596203;39;20055;-66
2023/09/15 00:45:18;;;;;;;15.05;12.70;;;;;;;14.93;82.92;101721.94;3594768;39;20054;-66
2023/09/15 00:47:50;;;;;;;15.38;12.73;;;;;;;14.90;82.97;101727.53;3594265;39;20055;-67
2023/09/15 00:50:22;;;;;;;15.95;12.95;;;;;;;14.88;82.75;101719.53;3594075;39;20075;-67
2023/09/15 00:52:55;;;;;;;13.98;12.45;;;;;;;14.85;82.55;101722.44;3595134;39;20387;-66
2023/09/15 00:55:24;;;;;;;14.50;12.75;;;;;;;14.84;82.64;101726.09;3593226;39;20083;-67
2023/09/15 00:57:52;;;;;;;13.45;12.10;;;;;;;14.81;82.75;101724.47;3588446;39;20058;-66
2023/09/15 01:00:19;;;;;;;15.77;12.85;;;;;;;14.71;83.06;101706.22;3594201;39;20483;-66
2023/09/15 01:02:47;;;;;;;14.10;12.48;;;;;;;14.30;83.18;101636.69;3595301;39;20104;-67
2023/09/15 01:05:23;;;;;;;16.88;12.52;;;;;;;14.75;83.05;101719.47;3587627;39;20066;-67
2023/09/15 01:07:52;;;;;;;14.65;12.40;;;;;;;14.63;83.68;101694.06;3593557;39;20060;-67
2023/09/15 01:10:24;;;;;;;14.40;12.77;;;;;;;14.73;83.51;101713.28;3586411;39;20152;-68
2023/09/15 01:12:54;;;;;;;14.05;12.60;;;;;;;14.73;83.66;101715.13;3596017;39;20092;-66
2023/09/15 01:15:45;;;;;;;14.93;12.40;;;;;;;14.70;83.47;101715.31;3594784;39;20777;-66
2023/09/15 01:18:37;;;;;;;17.00;13.00;;;;;;;14.67;83.26;101707.41;3596088;39;20048;-66
2023/09/15 01:21:37;;;;;;;14.45;12.90;;;;;;;14.65;84.00;101706.63;3593678;39;20047;-66
2023/09/15 01:24:43;;;;;;;15.05;12.90;;;;;;;14.62;83.90;101705.88;3584814;39;20108;-66
2023/09/15 01:27:43;;;;;;;15.70;13.90;;;;;;;14.61;84.21;101700.53;3593868;39;20167;-66
2023/09/15 01:30:11;;;;;;;14.38;12.82;;;;;;;14.58;84.15;101696.19;3593454;39;20047;-67
2023/09/15 01:32:38;;;;;;;15.35;13.75;;;;;;;14.58;84.32;101700.72;3595328;39;20055;-67
2023/09/15 01:35:04;;;;;;;17.35;13.82;;;;;;;14.43;84.12;101680.94;3595533;39;20056;-67
2023/09/15 01:37:30;;;;;;;15.70;13.80;;;;;;;14.51;84.53;101689.44;3597461;39;20317;-67
2023/09/15 01:39:58;;;;;;;15.23;13.55;;;;;;;14.48;84.60;101686.91;3595050;39;20075;-67
2023/09/15 01:42:23;;;;;;;17.00;13.60;;;;;;;14.50;84.13;101693.09;3594872;39;20052;-66
2023/09/15 01:44:49;;;;;;;17.63;14.15;;;;;;;14.47;84.71;101682.47;3596237;39;20059;-67
2023/09/15 01:47:21;;;;;;;16.17;14.35;;;;;;;14.45;84.66;101681.69;3595962;39;20051;-67
2023/09/15 01:49:51;;;;;;;19.67;14.27;;;;;;;14.43;84.75;101689.06;3598410;39;20060;-66
2023/09/15 01:52:19;;;;;;;16.58;14.40;;;;;;;14.40;84.67;101686.53;3595472;39;20414;-66
2023/09/15 01:54:47;;;;;;;15.30;13.70;;;;;;;14.39;84.84;101682.94;3593365;39;20136;-66
2023/09/15 01:57:12;;;;;;;15.98;13.20;;;;;;;14.24;84.87;101659.59;3595890;39;20043;-67
2023/09/15 01:59:38;;;;;;;16.05;13.30;;;;;;;14.36;84.66;101679.56;3594387;39;20048;-65
2023/09/15 02:02:04;;;;;;;17.80;14.35;;;;;;;14.34;85.23;101682.38;3594126;39;20107;-67
2023/09/15 02:04:29;;;;;;;15.65;13.95;;;;;;;14.33;84.51;101685.16;3596916;39;20099;-66
2023/09/15 02:06:55;;;;;;;15.95;14.25;;;;;;;14.25;84.83;101666.75;3598869;39;20076;-66
2023/09/15 02:09:21;;;;;;;14.85;13.35;;;;;;;14.31;85.15;101681.72;3596278;39;20074;-67
2023/09/15 02:11:46;;;;;;;17.20;14.35;;;;;;;14.10;84.50;101652.34;3592795;39;20059;-67
2023/09/15 02:14:12;;;;;;;16.00;13.65;;;;;;;14.26;85.04;101686.53;3594814;39;20051;-66
2023/09/15 02:16:38;;;;;;;19.50;14.65;;;;;;;14.22;84.89;101683.16;3595864;39;20134;-67
2023/09/15 02:19:06;;;;;;;18.10;16.15;;;;;;;13.76;85.57;101610.34;3593780;39;20055;-67
2023/09/15 02:21:31;;;;;;;16.85;14.35;;;;;;;14.16;85.73;101691.66;3593101;39;20279;-67
2023/09/15 02:23:57;;;;;;;15.95;14.00;;;;;;;14.00;85.60;101662.03;3590836;39;20114;-69
2023/09/15 02:26:23;;;;;;;18.50;15.10;;;;;;;14.09;86.17;101680.38;3592932;39;20387;-67
2023/09/15 02:28:50;;;;;;;16.92;13.68;;;;;;;14.04;85.58;101671.66;3593233;39;20099;-66
2023/09/15 02:31:16;;;;;;;17.50;15.07;;;;;;;14.04;85.59;101673.50;3595895;39;20063;-67
2023/09/15 02:33:41;;;;;;;16.30;14.60;;;;;;;14.03;86.04;101671.78;3595158;39;20062;-66
2023/09/15 02:36:07;;;;;;;16.42;14.25;;;;;;;14.00;85.89;101667.44;3593504;39;20086;-67
2023/09/15 02:38:34;;;;;;;16.83;14.35;;;;;;;13.98;86.27;101663.06;3593130;39;20056;-68
2023/09/15 02:41:00;;;;;;;17.08;14.85;;;;;;;13.96;85.96;101665.03;3592997;39;20426;-67
2023/09/15 02:43:25;;;;;;;15.35;13.73;;;;;;;13.93;86.03;101666.09;3593713;39;20108;-65
2023/09/15 02:45:51;;;;;;;17.08;15.30;;;;;;;13.89;86.26;101659.09;3594129;39;20059;-67
2023/09/15 02:48:17;;;;;;;19.00;14.70;;;;;;;13.88;86.44;101662.78;3587764;39;20074;-66
2023/09/15 02:50:43;;;;;;;17.20;14.55;;;;;;;13.76;86.26;101647.31;3597745;39;20056;-66
2023/09/15 02:53:10;;;;;;;15.73;13.80;;;;;;;13.83;86.50;101657.69;3594982;39;20125;-67
2023/09/15 02:55:39;;;;;;;17.63;15.07;;;;;;;13.81;86.72;101656.03;3594703;39;20056;-67
2023/09/15 02:58:05;;;;;;;17.10;15.02;;;;;;;13.77;86.71;101659.91;3593112;39;20399;-67
2023/09/15 03:00:31;;;;;;;18.23;14.85;;;;;;;13.79;86.91;101658.81;3594720;39;20055;-67
2023/09/15 03:02:57;;;;;;;15.90;13.50;;;;;;;13.78;86.83;101664.31;3595925;39;20052;-66
2023/09/15 03:05:23;;;;;;;14.75;13.23;;;;;;;13.77;86.71;101654.50;3594700;39;20059;-66
2023/09/15 03:07:48;;;;;;;15.82;13.50;;;;;;;13.77;87.00;101655.34;3589534;39;20565;-67
2023/09/15 03:10:15;;;;;;;15.52;13.18;;;;;;;13.76;86.72;101652.72;3598103;39;20109;-65
2023/09/15 03:12:41;;;;;;;16.65;13.80;;;;;;;13.72;86.19;101649.34;3588035;39;20047;-66
2023/09/15 03:15:08;;;;;;;15.15;13.32;;;;;;;13.58;86.44;101639.41;3593665;39;20109;-68
2023/09/15 03:17:39;;;;;;;15.73;13.98;;;;;;;13.64;86.78;101651.69;3596351;39;20372;-68
2023/09/15 03:20:16;;;;;;;16.52;13.15;;;;;;;13.62;86.74;101653.59;3594968;39;20061;-67
2023/09/15 03:22:43;;;;;;;16.98;13.52;;;;;;;13.58;86.60;101652.06;3595598;39;20060;-68
2023/09/15 03:25:09;;;;;;;14.82;13.32;;;;;;;13.50;86.78;101640.84;3593617;39;20060;-68
2023/09/15 03:27:35;;;;;;;16.75;13.65;;;;;;;13.48;86.86;101649.03;3595732;39;20052;-68
2023/09/15 03:30:04;;;;;;;15.75;13.63;;;;;;;13.24;87.16;101611.75;3594717;39;20112;-68
2023/09/15 03:32:30;;;;;;;15.68;13.65;;;;;;;13.41;86.94;101643.13;3594934;39;20121;-68
2023/09/15 03:34:56;;;;;;;17.23;13.27;;;;;;;13.28;86.98;101627.75;3595267;39;20344;-69
2023/09/15 03:37:21;;;;;;;26.80;19.33;;;;;;;13.33;87.11;101644.56;3596015;39;20063;-68
2023/09/15 03:39:47;;;;;;;16.65;14.88;;;;;;;13.17;86.71;101623.00;3594185;39;20056;-67
2023/09/15 03:42:13;;;;;;;15.35;13.65;;;;;;;13.23;86.84;101639.69;3596871;39;20356;-66
2023/09/15 03:44:39;;;;;;;16.30;13.15;;;;;;;13.16;86.78;101627.53;3592802;39;20135;-67
2023/09/15 03:47:04;;;;;;;15.70;12.48;;;;;;;13.17;86.76;101640.06;3591185;39;20232;-65
2023/09/15 03:49:30;;;;;;;13.90;12.50;;;;;;;13.12;86.33;101634.03;3594399;39;20074;-67
2023/09/15 03:51:56;;;;;;;16.35;13.10;;;;;;;12.89;87.04;101596.75;3594669;39;20082;-67
2023/09/15 03:54:25;;;;;;;15.93;12.93;;;;;;;13.10;87.06;101633.28;3595350;39;20208;-67
2023/09/15 03:56:50;;;;;;;16.00;12.65;;;;;;;13.08;86.85;101635.19;3594124;39;20055;-67
2023/09/15 03:59:16;;;;;;;15.38;12.85;;;;;;;13.06;87.22;101629.00;3592624;39;20109;-67
2023/09/15 04:01:42;;;;;;;16.20;13.60;;;;;;;13.05;87.56;101629.97;3592216;39;20292;-67
2023/09/15 04:04:07;;;;;;;14.20;12.68;;;;;;;13.06;87.69;101633.53;3594945;39;20047;-66
2023/09/15 04:06:35;;;;;;;14.90;12.98;;;;;;;13.04;87.82;101636.34;3594588;39;20063;-68
2023/09/15 04:09:05;;;;;;;14.43;12.90;;;;;;;12.99;88.02;101624.94;3591866;39;20339;-67
2023/09/15 04:11:32;;;;;;;15.23;13.00;;;;;;;13.01;88.17;101632.00;3596748;39;20070;-68
2023/09/15 04:13:57;;;;;;;15.45;13.20;;;;;;;13.00;87.77;101632.06;3590991;39;20413;-68
2023/09/15 04:16:23;;;;;;;14.95;13.40;;;;;;;12.99;87.95;101624.94;3592608;39;20048;-68
2023/09/15 04:18:49;;;;;;;17.58;12.90;;;;;;;12.99;88.07;101631.19;3592081;39;20071;-68
2023/09/15 04:21:15;;;;;;;14.70;12.75;;;;;;;12.95;87.58;101623.41;3592494;39;20138;-68
2023/09/15 04:23:40;;;;;;;14.75;13.20;;;;;;;12.95;87.55;101628.78;3596161;39;20421;-68
2023/09/15 04:26:06;;;;;;;13.82;12.10;;;;;;;12.92;87.57;101618.19;3592041;39;20043;-67
2023/09/15 04:28:32;;;;;;;15.23;13.25;;;;;;;12.90;88.08;101618.25;3590456;39;20100;-66
2023/09/15 04:30:57;;;;;;;15.57;13.80;;;;;;;12.91;87.33;101621.84;3591695;39;20255;-67
2023/09/15 04:33:23;;;;;;;15.55;12.35;;;;;;;12.91;87.91;101622.72;3594924;39;20406;-68
2023/09/15 04:35:49;;;;;;;14.27;12.60;;;;;;;12.92;88.44;101620.88;3591521;39;20058;-68
2023/09/15 04:38:14;;;;;;;16.10;12.73;;;;;;;12.92;88.55;101615.47;3592536;39;20077;-66
2023/09/15 04:40:40;;;;;;;14.32;12.20;;;;;;;12.95;88.55;101607.19;3592084;39;20424;-67
2023/09/15 04:43:06;;;;;;;14.88;11.65;;;;;;;12.93;88.35;101609.09;3590850;39;20302;-67
2023/09/15 04:45:31;;;;;;;16.42;12.88;;;;;;;12.83;88.32;101589.03;3591027;39;20075;-66
2023/09/15 04:47:57;;;;;;;13.73;11.18;;;;;;;12.97;87.76;101621.44;3594143;39;20091;-67
2023/09/15 04:50:23;;;;;;;14.75;11.70;;;;;;;12.76;87.87;101581.28;3592163;39;20066;-68
2023/09/15 04:52:48;;;;;;;14.20;12.40;;;;;;;12.99;88.95;101614.16;3591206;39;20116;-67
2023/09/15 04:55:14;;;;;;;12.88;11.52;;;;;;;12.97;88.36;101616.06;3592082;39;20063;-67
2023/09/15 04:57:39;;;;;;;13.85;12.15;;;;;;;12.99;88.72;101627.63;3594169;39;20352;-68
2023/09/15 05:00:12;;;;;;;14.40;12.77;;;;;;;12.77;88.39;101598.34;3592211;39;20064;-69
2023/09/15 05:02:42;;;;;;;15.37;11.53;;;;;;;12.99;88.51;101631.19;3584223;39;20084;-69
2023/09/15 05:05:08;;;;;;;14.95;12.75;;;;;;;13.00;89.02;101626.66;3591147;39;20050;-69
2023/09/15 05:07:34;;;;;;;14.50;12.02;;;;;;;13.00;88.65;101637.47;3593668;39;20063;-68
2023/09/15 05:10:00;;;;;;;13.98;11.82;;;;;;;12.98;88.50;101636.72;3591890;39;20139;-67
2023/09/15 05:12:26;;;;;;;14.38;11.52;;;;;;;12.96;88.85;101627.81;3592182;39;20060;-68
2023/09/15 05:14:52;;;;;;;13.00;11.45;;;;;;;12.63;89.03;101566.81;3591281;39;20413;-68
2023/09/15 05:17:17;;;;;;;13.32;12.02;;;;;;;13.01;88.70;101633.81;3593155;39;20075;-68
2023/09/15 05:19:43;;;;;;;15.38;12.13;;;;;;;13.01;89.11;101645.50;3593424;39;20059;-68
2023/09/15 05:22:08;;;;;;;15.13;12.82;;;;;;;13.02;89.00;101635.56;3590379;39;20056;-68
2023/09/15 05:24:34;;;;;;;14.15;12.23;;;;;;;13.05;89.27;101643.47;3593005;39;20056;-68
2023/09/15 05:27:00;;;;;;;13.73;11.10;;;;;;;13.06;88.75;101642.50;3594887;39;20059;-67
2023/09/15 05:29:25;;;;;;;13.73;12.32;;;;;;;12.95;88.09;101615.28;3591710;39;20047;-67
2023/09/15 05:31:51;;;;;;;15.85;14.00;;;;;;;13.07;88.40;101638.00;3593796;39;20081;-68
2023/09/15 05:34:17;;;;;;;15.85;13.60;;;;;;;13.05;88.98;101638.06;3590879;39;20067;-66
2023/09/15 05:36:42;;;;;;;16.73;13.85;;;;;;;13.07;88.78;101636.16;3593455;39;20314;-68
2023/09/15 05:39:08;;;;;;;15.90;13.52;;;;;;;13.06;88.97;101636.25;3595101;39;20094;-68
2023/09/15 05:41:34;;;;;;;15.45;12.90;;;;;;;13.05;89.07;101639.91;3591223;39;20047;-68
2023/09/15 05:43:59;;;;;;;13.57;12.15;;;;;;;13.06;89.89;101630.84;3588296;39;20466;-67
2023/09/15 05:46:25;;;;;;;17.13;12.32;;;;;;;13.04;89.77;101633.66;3592480;39;20113;-67
2023/09/15 05:48:51;;;;;;;14.45;12.70;;;;;;;13.08;89.76;101634.34;3592007;39;20071;-67
2023/09/15 05:51:16;;;;;;;14.93;11.75;;;;;;;13.09;89.66;101639.63;3593746;39;20063;-68
2023/09/15 05:53:42;;;;;;;13.07;11.68;;;;;;;13.11;89.62;101640.41;3591776;39;20091;-66
2023/09/15 05:56:08;;;;;;;13.10;11.80;;;;;;;13.08;89.45;101631.63;3594423;39;20047;-69
2023/09/15 05:58:33;;;;;;;13.60;12.20;;;;;;;13.17;89.42;101644.59;3592827;39;20055;-68
2023/09/15 06:00:59;;;;;;;16.05;13.30;;;;;;;13.21;89.15;101640.72;3596116;39;20048;-67
2023/09/15 06:03:25;;;;;;;16.08;13.57;;;;;;;13.24;89.24;101640.53;3595103;39;20074;-67
2023/09/15 06:05:51;;;;;;;14.13;12.60;;;;;;;13.26;89.13;101643.16;3591026;39;20071;-68
2023/09/15 06:08:19;;;;;;;13.38;11.95;;;;;;;13.29;89.35;101643.88;3591691;39;20067;-66
2023/09/15 06:10:46;;;;;;;13.63;10.98;;;;;;;13.35;89.43;101645.31;3593590;39;20054;-69
2023/09/15 06:13:12;;;;;;;14.48;10.60;;;;;;;13.39;89.21;101645.06;3591795;39;20059;-66
2023/09/15 06:15:38;;;;;;;12.32;10.27;;;;;;;13.43;88.53;101643.91;3595004;39;20081;-68
2023/09/15 06:18:04;;;;;;;12.60;10.35;;;;;;;13.50;88.35;101654.34;3594207;39;20330;-68
2023/09/15 06:20:31;;;;;;;13.77;10.00;;;;;;;13.56;88.41;101651.25;3595923;39;20056;-68
2023/09/15 06:22:57;;;;;;;11.98;10.57;;;;;;;13.63;88.63;101647.22;3596678;39;20344;-68
2023/09/15 06:25:23;;;;;;;12.63;10.15;;;;;;;13.68;87.64;101637.88;3595372;39;20068;-68
2023/09/15 06:27:49;;;;;;;11.80;9.45;;;;;;;13.49;87.38;101607.56;3594517;39;20052;-68
2023/09/15 06:30:15;;;;;;;10.98;9.85;;;;;;;13.78;87.68;101645.41;3597842;39;20136;-67
2023/09/15 06:32:41;;;;;;;10.63;9.52;;;;;;;13.83;87.20;101643.31;3598366;39;20051;-68
2023/09/15 06:35:12;;;;;;;14.55;8.93;;;;;;;13.88;87.20;101633.06;3602192;39;20309;-67
2023/09/15 06:37:39;;;;;;;11.38;9.18;;;;;;;13.93;86.04;101639.91;3597291;39;20047;-69
2023/09/15 06:40:06;;;;;;;12.38;9.15;;;;;;;14.01;86.60;101642.13;3596439;39;20062;-68
2023/09/15 06:42:32;;;;;;;13.13;8.45;;;;;;;14.06;85.87;101640.00;3594288;39;20640;-68
2023/09/15 06:44:57;;;;;;;10.55;8.70;;;;;;;14.14;85.78;101643.09;3595992;39;20058;-67
2023/09/15 06:47:23;;;;;;;11.70;9.13;;;;;;;14.23;85.21;101635.34;3595782;39;20370;-68
2023/09/15 06:49:49;;;;;;;13.35;8.73;;;;;;;14.29;85.77;101634.97;3596302;39;20040;-68
2023/09/15 06:52:15;;;;;;;13.43;9.10;;;;;;;14.35;85.54;101623.75;3597330;39;20063;-67
2023/09/15 06:54:41;;;;;;;10.23;8.50;;;;;;;14.48;85.36;101627.38;3594370;39;20065;-68
2023/09/15 06:57:06;;;;;;;10.85;8.00;;;;;;;14.57;85.38;101628.66;3593102;39;20305;-68
2023/09/15 06:59:32;;;;;;;9.80;8.10;;;;;;;14.61;84.12;101630.19;3595145;39;20066;-69
2023/09/15 07:01:59;;;;;;;11.23;7.93;;;;;;;14.69;84.10;101622.44;3596716;39;20043;-68
2023/09/15 07:04:25;;;;;;;10.27;8.18;;;;;;;14.81;83.15;101631.56;3593870;39;20074;-68
2023/09/15 07:06:51;;;;;;;10.30;7.72;;;;;;;14.90;82.71;101627.38;3593413;39;20379;-68
2023/09/15 07:09:17;;;;;;;8.43;7.45;;;;;;;14.92;82.51;101604.66;3584314;39;20043;-68
2023/09/15 07:11:42;;;;;;;9.35;7.70;;;;;;;15.17;81.30;101627.34;3596198;39;20717;-67
2023/09/15 07:14:08;;;;;;;8.40;7.32;;;;;;;15.33;81.16;101628.03;3595156;39;20048;-70
2023/09/15 07:16:34;;;;;;;9.60;7.22;;;;;;;15.48;79.64;101618.84;3594941;39;20047;-67
2023/09/15 07:18:59;;;;;;;10.07;7.00;;;;;;;15.66;78.94;101618.50;3596720;39;20487;-68
2023/09/15 07:21:25;;;;;;;7.25;6.47;;;;;;;15.58;79.39;101574.84;3593784;39;20060;-69
2023/09/15 07:23:50;;;;;;;8.00;6.72;;;;;;;16.04;78.63;101617.66;3593546;39;20048;-68
2023/09/15 07:26:16;;;;;;;8.18;6.13;;;;;;;16.23;76.84;101620.75;3594563;39;20075;-66
2023/09/15 07:28:42;;;;;;;9.73;6.20;;;;;;;16.36;75.29;101613.44;3594786;39;20122;-67
2023/09/15 07:31:10;;;;;;;8.80;5.90;;;;;;;16.52;74.43;101623.19;3594162;39;20355;-67
2023/09/15 07:33:35;;;;;;;7.28;5.60;;;;;;;16.59;74.70;101608.19;3594021;39;20051;-67
2023/09/15 07:36:05;;;;;;;7.93;6.22;;;;;;;16.87;74.11;101616.03;3596323;39;20091;-67
2023/09/15 07:38:31;;;;;;;11.50;5.82;;;;;;;17.04;72.25;101614.72;3593281;39;20052;-67
2023/09/15 07:40:58;;;;;;;7.97;6.43;;;;;;;17.13;72.63;101607.72;3593694;39;20083;-67
2023/09/15 07:43:24;;;;;;;7.60;6.00;;;;;;;17.04;71.44;101575.84;3593329;39;20080;-69
2023/09/15 07:45:50;;;;;;;8.80;6.07;;;;;;;17.42;71.37;101612.75;3598208;39;20125;-70
2023/09/15 07:48:17;;;;;;;8.00;5.72;;;;;;;17.57;69.33;101609.69;3593519;39;20039;-68
2023/09/15 07:50:43;;;;;;;8.02;5.65;;;;;;;17.63;69.35;101590.19;3594450;39;20449;-68
2023/09/15 07:53:10;;;;;;;8.95;5.82;;;;;;;17.92;69.45;101613.31;3593363;39;20052;-69
2023/09/15 07:55:36;;;;;;;8.68;5.97;;;;;;;18.11;69.82;101605.44;3592865;39;20124;-68
2023/09/15 07:58:01;;;;;;;6.45;5.65;;;;;;;18.29;69.45;101612.06;3593604;39;20394;-68
2023/09/15 08:00:27;;;;;;;9.13;6.07;;;;;;;18.40;68.65;101615.78;3596585;39;20064;-67
2023/09/15 08:02:53;;;;;;;9.75;5.57;;;;;;;18.47;66.68;101617.88;3593450;39;20286;-68
2023/09/15 08:05:19;;;;;;;7.28;5.60;;;;;;;18.45;66.17;101616.25;3593369;39;20052;-66
2023/09/15 08:07:46;;;;;;;7.72;5.70;;;;;;;18.55;66.45;101614.50;3593735;39;20052;-68
2023/09/15 08:10:13;;;;;;;6.32;5.68;;;;;;;18.68;65.71;101609.78;3594465;39;20109;-68
2023/09/15 08:12:39;;;;;;;6.82;5.40;;;;;;;18.87;67.06;101609.13;3593464;39;20102;-67
2023/09/15 08:15:05;;;;;;;8.80;5.80;;;;;;;19.10;66.23;101604.44;3594049;39;20103;-70
2023/09/15 08:17:32;;;;;;;7.68;5.18;;;;;;;19.24;64.08;101604.13;3593894;39;20391;-67
2023/09/15 08:19:59;;;;;;;5.95;4.97;;;;;;;19.37;64.27;101605.78;3593309;39;20086;-68
2023/09/15 08:22:26;;;;;;;9.68;5.57;;;;;;;19.39;64.04;101609.25;3593708;39;20055;-68
2023/09/15 08:24:52;;;;;;;7.85;5.85;;;;;;;19.50;66.03;101600.97;3593451;39;20370;-67
2023/09/15 08:27:19;;;;;;;8.98;5.20;;;;;;;19.65;62.97;101601.53;3594020;39;20414;-69
2023/09/15 08:29:45;;;;;;;10.13;5.28;;;;;;;19.66;62.08;101597.81;3594153;39;20051;-69
2023/09/15 08:32:14;;;;;;;8.50;5.07;;;;;;;19.71;63.08;101582.78;3596825;39;20055;-69
2023/09/15 08:34:41;;;;;;;7.95;5.15;;;;;;;20.09;63.42;101605.78;3593921;39;20063;-68
2023/09/15 08:37:07;;;;;;;8.32;5.00;;;;;;;20.23;60.27;101609.13;3595774;39;20376;-69
2023/09/15 08:39:33;;;;;;;6.65;4.93;;;;;;;20.31;61.39;101606.56;3592174;39;20059;-68
2023/09/15 08:42:07;;;;;;;8.10;4.47;;;;;;;20.46;59.95;101599.72;3592899;39;20374;-68
2023/09/15 08:44:33;;;;;;;11.13;4.55;;;;;;;20.66;60.35;101597.06;3592372;39;20435;-69
2023/09/15 08:47:01;;;;;;;8.23;4.40;;;;;;;20.83;58.59;101599.94;3594295;39;20051;-69
2023/09/15 08:49:29;;;;;;;8.60;4.90;;;;;;;20.94;59.18;101581.69;3593041;39;20095;-68
2023/09/15 08:51:57;;;;;;;5.85;3.97;;;;;;;21.27;59.10;101588.56;3593348;39;20063;-69
2023/09/15 08:54:23;;;;;;;6.80;4.07;;;;;;;21.36;58.25;101571.31;3592653;39;20052;-69
2023/09/15 08:56:49;;;;;;;7.15;4.00;;;;;;;21.65;57.38;101592.25;3593149;39;20052;-68
2023/09/15 08:59:16;;;;;;;5.85;4.68;;;;;;;21.66;56.13;101591.25;3593468;39;20060;-68
2023/09/15 09:01:42;;;;;;;6.03;4.10;;;;;;;21.72;56.40;101583.28;3592699;39;20069;-68
2023/09/15 09:04:08;;;;;;;5.75;4.03;;;;;;;21.79;56.09;101586.31;3594090;39;20091;-67
2023/09/15 09:06:35;;;;;;;7.47;4.38;;;;;;;21.89;57.20;101594.50;3593159;39;20052;-69
2023/09/15 09:09:03;;;;;;;4.82;4.10;;;;;;;22.14;55.89;101593.81;3596197;39;20067;-67
2023/09/15 09:11:29;;;;;;;7.88;3.88;;;;;;;22.28;55.11;101592.47;3592757;39;20043;-67
2023/09/15 09:13:54;;;;;;;5.63;3.97;;;;;;;22.43;53.71;101587.34;3592786;39;20311;-67
2023/09/15 09:16:21;;;;;;;4.97;3.97;;;;;;;22.53;53.84;101587.28;3588371;39;20082;-69
2023/09/15 09:19:03;;;;;;;5.65;3.83;;;;;;;22.60;53.02;101585.63;3597484;39;20128;-66
2023/09/15 09:21:32;;;;;;;7.20;3.97;;;;;;;22.79;54.47;101585.50;3597420;39;20040;-67
2023/09/15 09:23:58;;;;;;;4.28;3.35;;;;;;;22.89;51.85;101579.94;3592967;39;20082;-69
2023/09/15 09:26:24;;;;;;;4.72;3.53;;;;;;;23.02;51.50;101577.69;3592495;39;20079;-67
2023/09/15 09:28:56;;;;;;;6.65;3.92;;;;;;;23.20;51.35;101574.06;3590527;40;20365;-66
2023/09/15 09:31:25;;;;;;;6.10;3.83;;;;;;;23.30;51.95;101580.31;3598899;39;20043;-66
2023/09/15 09:33:52;;;;;;;7.97;3.80;;;;;;;23.45;52.16;101580.59;3592886;39;20059;-67
2023/09/15 09:36:18;;;;;;;5.75;2.92;;;;;;;23.52;50.84;101557.84;3593217;39;20279;-69
2023/09/15 09:38:50;;;;;;;3.78;3.00;;;;;;;23.76;50.99;101578.28;3592413;39;20062;-67
2023/09/15 09:41:21;;;;;;;5.45;3.25;;;;;;;23.80;51.17;101577.78;3595127;39;20068;-67
2023/09/15 09:43:51;;;;;;;4.60;3.83;;;;;;;23.89;48.38;101569.59;3592322;39;20051;-68
2023/09/15 09:46:21;;;;;;;7.32;3.70;;;;;;;23.81;49.51;101576.72;3594950;39;20059;-66
2023/09/15 09:48:49;;;;;;;7.15;3.13;;;;;;;23.83;50.57;101566.47;3589485;39;20056;-67
2023/09/15 09:51:18;;;;;;;6.68;3.40;;;;;;;23.70;49.37;101559.69;3594168;39;20058;-68
2023/09/15 09:53:44;;;;;;;5.88;3.00;;;;;;;23.77;49.44;101567.09;3595679;39;20056;-68
2023/09/15 09:56:10;;;;;;;6.72;3.00;;;;;;;23.92;48.78;101572.00;3598669;39;20334;-68
2023/09/15 09:58:40;;;;;;;4.85;3.30;;;;;;;24.08;47.29;101566.59;3592695;39;20059;-68
2023/09/15 10:01:06;;;;;;;4.82;3.08;;;;;;;24.07;47.89;101567.59;3584045;40;20050;-68
2023/09/15 10:03:33;;;;;;;6.88;3.20;;;;;;;24.19;49.97;101558.03;3593781;39;20361;-67
2023/09/15 10:06:00;;;;;;;3.35;3.00;;;;;;;24.53;49.06;101557.13;3588371;39;20048;-66
2023/09/15 10:08:27;;;;;;;3.97;3.25;;;;;;;24.56;48.69;101540.31;3591290;39;20177;-68
2023/09/15 10:10:55;;;;;;;5.00;2.85;;;;;;;24.79;48.09;101557.00;3596744;39;20064;-67
2023/09/15 10:13:22;;;;;;;3.78;2.70;;;;;;;24.89;48.30;101548.59;3593883;39;20047;-68
2023/09/15 10:15:51;;;;;;;5.90;3.30;;;;;;;25.06;46.63;101544.81;3596272;39;20359;-67
2023/09/15 10:18:20;;;;;;;6.05;3.90;;;;;;;25.14;47.49;101536.59;3595381;39;20060;-68
2023/09/15 10:20:50;;;;;;;3.92;3.17;;;;;;;25.27;47.42;101538.81;3600478;39;20460;-68
2023/09/15 10:23:17;;;;;;;4.32;2.97;;;;;;;25.42;46.62;101537.06;3595267;39;20128;-67
2023/09/15 10:25:49;;;;;;;5.25;3.50;;;;;;;25.49;45.99;101531.72;3596671;39;20107;-67
2023/09/15 10:28:19;;;;;;;3.90;3.30;;;;;;;25.52;46.60;101527.75;3600247;39;20063;-68
2023/09/15 10:30:45;;;;;;;5.20;3.40;;;;;;;25.65;46.05;101526.16;3598625;39;20269;-68
2023/09/15 10:33:12;;;;;;;4.45;3.47;;;;;;;25.58;44.97;101507.78;3600900;39;20087;-66
2023/09/15 10:35:45;;;;;;;4.00;2.78;;;;;;;25.85;46.33;101536.81;3595187;39;20071;-67
2023/09/15 10:38:11;;;;;;;;;;;;;;;25.75;45.14;101503.91;3597419;39;20044;-65
2023/09/15 10:40:49;;;;;;;5.85;3.03;;;;;;;26.06;43.96;101522.44;3589749;39;20580;-67
2023/09/15 10:43:18;;;;;;;4.35;3.53;;;;;;;26.04;43.80;101507.97;3594223;39;20032;-67
2023/09/15 10:46:03;;;;;;;3.08;2.55;;;;;;;26.08;43.48;101499.16;3591796;39;20055;-67
2023/09/15 10:48:43;;;;;;;5.15;3.10;;;;;;;26.32;42.86;101511.09;3592209;39;20333;-66
2023/09/15 10:51:11;;;;;;;4.40;2.72;;;;;;;26.46;43.23;101515.84;3593749;39;20136;-67
2023/09/15 10:54:00;;;;;;;4.40;3.08;;;;;;;26.38;44.45;101500.19;3592548;39;20121;-66
2023/09/15 10:56:26;;;;;;;3.60;3.08;;;;;;;26.78;44.95;101505.63;3591883;39;20098;-67
2023/09/15 10:58:54;;;;;;;4.00;2.58;;;;;;;26.76;42.77;101502.19;3587469;39;20130;-66
2023/09/15 11:01:20;;;;;;;5.45;2.60;;;;;;;26.92;42.88;101502.03;3592786;39;20329;-66
2023/09/15 11:03:46;;;;;;;2.88;2.50;;;;;;;27.15;40.52;101504.81;3593243;39;20052;-68
2023/09/15 11:06:15;;;;;;;6.07;2.78;;;;;;;27.30;41.52;101493.78;3596407;39;20066;-67
2023/09/15 11:08:41;;;;;;;3.95;2.80;;;;;;;27.30;41.50;101499.31;3585093;39;20373;-68
2023/09/15 11:11:09;;;;;;;5.95;2.97;;;;;;;27.21;40.91;101489.38;3590408;39;20271;-67
2023/09/15 11:13:37;;;;;;;4.50;3.22;;;;;;;27.28;41.07;101490.38;3593689;39;20401;-69
2023/09/15 11:16:03;;;;;;;4.82;2.80;;;;;;;27.44;40.56;101487.44;3595717;39;20048;-66
2023/09/15 11:18:35;;;;;;;4.65;2.22;;;;;;;27.76;39.38;101488.09;3593927;39;20063;-68